Time;durP1;ratioP1;P1;durP2;ratioP2;P2;SDS_P1;SDS_P2;PMS_P1;PMS_P2;Temp;Humidity;BMP_temperature;BMP_pressure;BME280_temperature;BME280_humidity;BME280_pressure;Samples;Min_cycle;Max_cycle;Signal;HPM_P1;HPM_P2
2020/12/09 00:00:32;;;;;;;20.52;12.15;;;5.40;99.90;;;;;;4162400;28;20041;-71
2020/12/09 00:02:33;;;;;;;19.98;13.25;;;5.40;99.90;;;;;;4158035;28;20058;-71
2020/12/09 00:04:34;;;;;;;22.05;13.70;;;5.40;99.90;;;;;;4162184;28;20045;-71
2020/12/09 00:06:38;;;;;;;21.73;13.60;;;5.40;99.90;;;;;;4155437;28;20053;-71
2020/12/09 00:08:38;;;;;;;22.20;13.68;;;5.40;99.90;;;;;;4160625;28;20029;-71
2020/12/09 00:10:39;;;;;;;22.88;14.00;;;5.40;99.90;;;;;;4160563;28;20057;-71
2020/12/09 00:12:40;;;;;;;26.23;15.77;;;5.40;99.90;;;;;;4154794;28;20045;-71
2020/12/09 00:14:40;;;;;;;28.45;16.65;;;5.40;99.90;;;;;;4159830;28;20022;-71
2020/12/09 00:16:41;;;;;;;28.40;16.63;;;5.40;99.90;;;;;;4160992;28;20041;-71
2020/12/09 00:18:41;;;;;;;27.98;16.10;;;5.40;99.90;;;;;;4161428;28;20362;-71
2020/12/09 00:20:42;;;;;;;29.77;16.83;;;5.40;99.90;;;;;;4161430;28;20476;-71
2020/12/09 00:22:43;;;;;;;25.70;15.13;;;5.40;99.90;;;;;;4161560;28;20584;-71
2020/12/09 00:24:43;;;;;;;27.80;15.80;;;5.40;99.90;;;;;;4161116;28;20064;-71
2020/12/09 00:26:44;;;;;;;28.30;15.25;;;5.40;99.90;;;;;;4159889;28;20436;-71
2020/12/09 00:28:45;;;;;;;25.77;15.18;;;5.40;99.90;;;;;;4161197;28;20485;-71
2020/12/09 00:30:46;;;;;;;24.05;14.10;;;5.40;99.90;;;;;;4155487;28;20144;-71
2020/12/09 00:32:46;;;;;;;24.95;13.60;;;5.40;99.90;;;;;;4160805;28;20030;-71
2020/12/09 00:34:47;;;;;;;19.58;11.95;;;5.40;99.90;;;;;;4160927;28;20034;-71
2020/12/09 00:36:48;;;;;;;17.48;10.75;;;5.40;99.90;;;;;;4160832;28;20439;-71
2020/12/09 00:38:50;;;;;;;17.58;11.02;;;5.40;99.90;;;;;;4159746;28;20037;-71
2020/12/09 00:40:50;;;;;;;16.40;10.85;;;5.40;99.90;;;;;;4160843;28;20069;-71
2020/12/09 00:42:51;;;;;;;14.35;10.20;;;5.40;99.90;;;;;;4161551;28;20034;-71
2020/12/09 00:44:52;;;;;;;16.55;10.43;;;5.40;99.90;;;;;;4159954;28;20036;-71
2020/12/09 00:46:54;;;;;;;17.80;11.02;;;5.40;99.90;;;;;;4154406;28;20034;-71
2020/12/09 00:48:55;;;;;;;17.30;10.90;;;5.40;99.90;;;;;;4161392;28;20168;-71
2020/12/09 00:50:55;;;;;;;17.60;11.43;;;5.40;99.90;;;;;;4161310;28;20025;-71
2020/12/09 00:52:56;;;;;;;18.13;11.88;;;5.40;99.90;;;;;;4161369;28;20465;-71
2020/12/09 00:54:57;;;;;;;19.17;11.88;;;5.40;99.90;;;;;;4161558;28;20385;-71
2020/12/09 00:56:57;;;;;;;18.30;12.23;;;5.40;99.90;;;;;;4160643;28;20049;-71
2020/12/09 00:58:58;;;;;;;17.77;12.13;;;5.40;99.90;;;;;;4161764;28;20053;-71
2020/12/09 01:00:59;;;;;;;19.40;12.50;;;5.40;99.90;;;;;;4153808;28;20519;-71
2020/12/09 01:03:00;;;;;;;20.02;12.20;;;5.40;99.90;;;;;;4160202;28;20053;-71
2020/12/09 01:05:01;;;;;;;20.45;12.60;;;5.40;99.90;;;;;;4159116;28;20030;-71
2020/12/09 01:07:01;;;;;;;20.38;12.38;;;5.50;99.90;;;;;;4159575;28;20037;-71
2020/12/09 01:09:06;;;;;;;19.23;12.30;;;5.50;99.90;;;;;;4161402;28;20034;-71
2020/12/09 01:11:07;;;;;;;18.98;11.80;;;5.40;99.90;;;;;;4158508;28;20034;-71
2020/12/09 01:13:08;;;;;;;18.67;11.57;;;5.50;99.90;;;;;;4158712;28;20044;-71
2020/12/09 01:15:09;;;;;;;17.60;11.30;;;5.50;99.90;;;;;;4160997;28;20033;-71
2020/12/09 01:17:13;;;;;;;15.35;11.15;;;5.50;99.90;;;;;;4159009;28;20073;-71
2020/12/09 01:19:14;;;;;;;18.02;11.23;;;5.50;99.90;;;;;;4159823;28;20044;-71
2020/12/09 01:21:14;;;;;;;15.88;10.40;;;5.50;99.90;;;;;;4142942;28;20042;-71
2020/12/09 01:23:16;;;;;;;17.23;11.70;;;5.40;99.90;;;;;;4141547;28;20062;-71
2020/12/09 01:25:17;;;;;;;19.30;12.00;;;5.40;99.90;;;;;;4157266;28;20509;-71
2020/12/09 01:27:24;;;;;;;18.75;11.75;;;5.40;99.90;;;;;;4161041;28;20091;-71
2020/12/09 01:29:25;;;;;;;18.23;11.82;;;5.50;99.90;;;;;;4158886;28;20045;-71
2020/12/09 01:31:26;;;;;;;17.40;11.13;;;5.50;99.90;;;;;;4161071;28;20374;-71
2020/12/09 01:33:26;;;;;;;18.83;11.02;;;5.50;99.90;;;;;;4154921;28;20523;-71
2020/12/09 01:35:28;;;;;;;17.73;11.93;;;5.40;99.90;;;;;;4159743;28;20040;-71
2020/12/09 01:37:28;;;;;;;17.75;11.77;;;5.50;99.90;;;;;;4161193;28;20029;-71
2020/12/09 01:39:29;;;;;;;18.77;12.48;;;5.50;99.90;;;;;;4158848;28;20029;-71
2020/12/09 01:41:29;;;;;;;17.58;11.75;;;5.50;99.90;;;;;;4158719;28;20232;-71
2020/12/09 01:43:30;;;;;;;20.92;12.65;;;5.50;99.90;;;;;;4160411;28;20045;-71
2020/12/09 01:45:33;;;;;;;19.42;12.75;;;5.50;99.90;;;;;;4160506;28;20025;-71
2020/12/09 01:47:33;;;;;;;17.60;12.10;;;5.50;99.90;;;;;;4160269;28;20029;-71
2020/12/09 01:49:35;;;;;;;19.85;12.60;;;5.50;99.90;;;;;;4158444;28;20108;-71
2020/12/09 01:51:36;;;;;;;17.80;11.20;;;5.50;99.90;;;;;;4159514;28;20515;-71
2020/12/09 01:53:36;;;;;;;16.08;11.38;;;5.50;99.90;;;;;;4160844;28;20068;-71
2020/12/09 01:55:37;;;;;;;14.82;10.85;;;5.50;99.90;;;;;;4159663;28;20408;-71
2020/12/09 01:57:38;;;;;;;17.60;10.98;;;5.50;99.90;;;;;;4159343;28;20501;-71
2020/12/09 01:59:39;;;;;;;16.05;10.93;;;5.50;99.90;;;;;;4159302;28;20029;-71
2020/12/09 02:01:40;;;;;;;17.07;10.47;;;5.50;99.90;;;;;;4159387;28;20098;-71
2020/12/09 02:03:43;;;;;;;16.00;9.88;;;5.50;99.90;;;;;;4160619;28;20026;-71
2020/12/09 02:05:44;;;;;;;15.52;10.57;;;5.50;99.90;;;;;;4160381;28;20440;-71
2020/12/09 02:07:44;;;;;;;15.88;10.55;;;5.50;99.90;;;;;;4160693;28;20116;-71
2020/12/09 02:09:56;;;;;;;17.58;11.57;;;5.50;99.90;;;;;;4158969;28;20048;-71
2020/12/09 02:11:57;;;;;;;18.27;11.15;;;5.50;99.90;;;;;;4156710;28;20037;-71
2020/12/09 02:13:57;;;;;;;19.98;12.77;;;5.50;99.90;;;;;;4159923;28;20025;-71
2020/12/09 02:15:59;;;;;;;19.45;12.73;;;5.50;99.90;;;;;;4160995;28;20096;-71
2020/12/09 02:18:00;;;;;;;17.50;12.13;;;5.40;99.90;;;;;;4158671;28;20632;-71
2020/12/09 02:20:00;;;;;;;19.60;12.15;;;5.40;99.90;;;;;;4159479;28;20062;-71
2020/12/09 02:22:11;;;;;;;20.10;12.23;;;5.50;99.90;;;;;;4158991;28;20032;-71
2020/12/09 02:24:12;;;;;;;19.42;12.60;;;5.50;99.90;;;;;;4157600;28;20037;-71
2020/12/09 02:26:13;;;;;;;18.15;11.82;;;5.50;99.90;;;;;;4159942;28;20712;-71
2020/12/09 02:28:13;;;;;;;22.08;14.40;;;5.40;99.90;;;;;;4159044;28;20030;-71
2020/12/09 02:30:15;;;;;;;22.45;13.27;;;5.40;99.90;;;;;;4160149;28;20033;-71
2020/12/09 02:32:15;;;;;;;19.58;12.93;;;5.40;99.90;;;;;;4154542;28;20130;-71
2020/12/09 02:34:16;;;;;;;21.42;12.85;;;5.40;99.90;;;;;;4159501;28;20375;-71
2020/12/09 02:36:17;;;;;;;21.50;13.70;;;5.40;99.90;;;;;;4159988;28;20101;-71
2020/12/09 02:38:18;;;;;;;20.65;13.15;;;5.40;99.90;;;;;;4157109;28;20081;-71
2020/12/09 02:40:21;;;;;;;22.48;13.55;;;5.40;99.90;;;;;;4155350;28;20065;-71
2020/12/09 02:42:21;;;;;;;18.55;12.60;;;5.40;99.90;;;;;;4160421;28;20030;-71
2020/12/09 02:44:22;;;;;;;23.92;14.25;;;5.50;99.90;;;;;;4158891;28;20164;-71
2020/12/09 02:46:22;;;;;;;21.88;13.57;;;5.50;99.90;;;;;;4156523;28;20022;-71
2020/12/09 02:48:23;;;;;;;24.73;14.43;;;5.50;99.90;;;;;;4157223;28;20474;-71
2020/12/09 02:50:24;;;;;;;22.95;14.05;;;5.50;99.90;;;;;;4158297;28;20598;-72
2020/12/09 02:52:25;;;;;;;22.50;14.40;;;5.50;99.90;;;;;;4159002;28;20041;-71
2020/12/09 02:54:26;;;;;;;25.95;15.23;;;5.50;99.90;;;;;;4158308;28;20381;-71
2020/12/09 02:56:27;;;;;;;22.67;15.00;;;5.50;99.90;;;;;;4161658;28;20038;-71
2020/12/09 02:58:28;;;;;;;21.15;13.38;;;5.40;99.90;;;;;;4161922;28;20038;-71
2020/12/09 03:00:29;;;;;;;22.13;13.95;;;5.40;99.90;;;;;;4163486;28;20117;-71
2020/12/09 03:02:29;;;;;;;24.15;15.00;;;5.50;99.90;;;;;;4163608;28;20501;-71
2020/12/09 03:04:30;;;;;;;22.60;15.10;;;5.50;99.90;;;;;;4163197;28;20670;-71
2020/12/09 03:06:31;;;;;;;22.85;14.50;;;5.40;99.90;;;;;;4161152;28;20033;-71
2020/12/09 03:08:31;;;;;;;23.95;15.05;;;5.40;99.90;;;;;;4161181;28;20022;-71
2020/12/09 03:10:34;;;;;;;25.58;15.32;;;5.40;99.90;;;;;;4163296;28;20030;-71
2020/12/09 03:12:34;;;;;;;24.40;15.07;;;5.40;99.90;;;;;;4162081;28;20579;-71
2020/12/09 03:14:35;;;;;;;24.60;15.48;;;5.50;99.90;;;;;;4162570;28;20067;-71
2020/12/09 03:16:36;;;;;;;27.05;16.45;;;5.50;99.90;;;;;;4161483;28;20040;-71
2020/12/09 03:18:36;;;;;;;21.95;14.30;;;5.50;99.90;;;;;;4162780;28;20034;-71
2020/12/09 03:20:37;;;;;;;23.13;15.02;;;5.40;99.90;;;;;;4161283;28;20381;-71
2020/12/09 03:22:37;;;;;;;23.90;15.05;;;5.40;99.90;;;;;;4156534;28;20385;-71
2020/12/09 03:24:38;;;;;;;23.13;14.43;;;5.40;99.90;;;;;;4162736;28;20030;-71
2020/12/09 03:26:38;;;;;;;21.30;14.45;;;5.50;99.90;;;;;;4161202;28;20021;-71
2020/12/09 03:28:39;;;;;;;24.00;14.75;;;5.50;99.90;;;;;;4161185;28;20168;-71
2020/12/09 03:30:40;;;;;;;22.88;14.93;;;5.50;99.90;;;;;;4160018;28;20049;-71
2020/12/09 03:32:40;;;;;;;21.52;14.50;;;5.50;99.90;;;;;;4160871;28;20116;-71
2020/12/09 03:34:41;;;;;;;21.70;14.48;;;5.50;99.90;;;;;;4162150;28;20599;-71
2020/12/09 03:36:41;;;;;;;25.02;15.65;;;5.50;99.90;;;;;;4160169;28;20029;-71
2020/12/09 03:38:42;;;;;;;25.02;16.33;;;5.50;99.90;;;;;;4160251;28;20048;-71
2020/12/09 03:40:42;;;;;;;25.42;16.27;;;5.50;99.90;;;;;;4162187;28;20037;-71
2020/12/09 03:42:43;;;;;;;25.65;15.38;;;5.50;99.90;;;;;;4160782;28;20037;-71
2020/12/09 03:44:44;;;;;;;22.98;14.85;;;5.50;99.90;;;;;;4158724;28;20546;-71
2020/12/09 03:46:44;;;;;;;24.05;14.63;;;5.50;99.90;;;;;;4158758;28;20113;-71
2020/12/09 03:48:45;;;;;;;24.33;14.98;;;5.50;99.90;;;;;;4159695;28;20030;-71
2020/12/09 03:50:45;;;;;;;21.45;14.25;;;5.50;99.90;;;;;;4157670;28;20034;-71
2020/12/09 03:52:46;;;;;;;22.75;14.38;;;5.60;99.90;;;;;;4156910;28;20025;-71
2020/12/09 03:54:46;;;;;;;21.90;13.65;;;5.50;99.90;;;;;;4153334;28;22343;-71
2020/12/09 03:56:47;;;;;;;22.83;14.60;;;5.50;99.90;;;;;;4159016;28;20048;-71
2020/12/09 03:58:50;;;;;;;24.38;15.20;;;5.50;99.90;;;;;;4160303;28;20034;-71
2020/12/09 04:00:51;;;;;;;22.55;14.88;;;5.60;99.90;;;;;;4161098;28;20068;-71
2020/12/09 04:02:52;;;;;;;21.58;14.68;;;5.60;99.90;;;;;;4161909;28;20624;-71
2020/12/09 04:04:52;;;;;;;26.75;15.50;;;5.60;99.90;;;;;;4156556;28;20057;-71
2020/12/09 04:06:53;;;;;;;24.05;14.57;;;5.50;99.90;;;;;;4160490;28;20112;-71
2020/12/09 04:08:53;;;;;;;22.90;14.63;;;5.50;99.90;;;;;;4162129;28;20038;-71
2020/12/09 04:10:54;;;;;;;23.55;13.77;;;5.50;99.90;;;;;;4151396;28;20121;-71
2020/12/09 04:12:55;;;;;;;23.88;14.30;;;5.50;99.90;;;;;;4160249;28;20493;-71
2020/12/09 04:14:55;;;;;;;23.45;14.73;;;5.50;99.90;;;;;;4160616;28;20035;-71
2020/12/09 04:16:56;;;;;;;21.63;13.20;;;5.50;99.90;;;;;;4161909;28;20505;-71
2020/12/09 04:18:56;;;;;;;20.58;13.48;;;5.50;99.90;;;;;;4161904;28;20109;-70
2020/12/09 04:20:57;;;;;;;22.02;13.48;;;5.50;99.90;;;;;;4161171;28;20041;-71
2020/12/09 04:22:58;;;;;;;22.60;12.93;;;5.50;99.90;;;;;;4161134;28;20049;-71
2020/12/09 04:24:58;;;;;;;23.38;13.85;;;5.50;99.90;;;;;;4158689;28;20034;-71
2020/12/09 04:26:59;;;;;;;21.55;13.38;;;5.50;99.90;;;;;;4159944;28;20120;-71
2020/12/09 04:29:00;;;;;;;21.85;13.80;;;5.50;99.90;;;;;;4161581;28;20072;-71
2020/12/09 04:31:00;;;;;;;21.75;13.63;;;5.50;99.90;;;;;;4161255;28;20042;-71
2020/12/09 04:33:01;;;;;;;24.00;14.13;;;5.50;99.90;;;;;;4159766;28;20456;-71
2020/12/09 04:35:03;;;;;;;21.23;13.50;;;5.50;99.90;;;;;;4155425;28;20428;-71
2020/12/09 04:37:04;;;;;;;;;;;5.50;99.90;;;;;;4161772;28;20040;-71
2020/12/09 04:39:05;;;;;;;21.33;14.23;;;5.50;99.90;;;;;;4161377;28;20285;-71
2020/12/09 04:41:06;;;;;;;23.70;14.35;;;5.50;99.90;;;;;;4160544;28;21669;-71
2020/12/09 04:43:07;;;;;;;23.88;15.32;;;5.50;99.90;;;;;;4160834;28;20152;-70
2020/12/09 04:45:08;;;;;;;23.02;14.05;;;5.50;99.90;;;;;;4158467;28;20053;-71
2020/12/09 04:47:26;;;;;;;22.33;14.23;;;5.50;99.90;;;;;;4160258;28;20462;-71
2020/12/09 04:49:38;;;;;;;21.35;13.73;;;5.50;99.90;;;;;;4161042;28;20029;-71
2020/12/09 04:51:54;;;;;;;23.42;15.13;;;5.50;99.90;;;;;;4160343;28;20845;-71
2020/12/09 04:53:59;;;;;;;22.35;14.73;;;5.50;99.90;;;;;;4157230;28;20366;-70
2020/12/09 04:56:00;;;;;;;27.05;16.08;;;5.50;99.90;;;;;;4159140;28;20474;-70
2020/12/09 04:58:33;;;;;;;28.02;15.40;;;5.40;99.90;;;;;;4158022;28;20044;-70
2020/12/09 05:00:34;;;;;;;29.05;17.20;;;5.40;99.90;;;;;;4160512;28;20555;-71
2020/12/09 05:02:40;;;;;;;24.15;15.70;;;5.40;99.90;;;;;;4159866;28;20029;-71
2020/12/09 05:04:41;;;;;;;27.10;16.73;;;5.40;99.90;;;;;;4158074;28;20074;-71
2020/12/09 05:06:41;;;;;;;27.35;16.77;;;5.40;99.90;;;;;;4161121;28;20077;-71
2020/12/09 05:08:53;;;;;;;27.73;17.00;;;5.40;99.90;;;;;;4160807;28;20534;-71
2020/12/09 05:10:55;;;;;;;30.90;18.00;;;5.30;99.90;;;;;;4154722;28;20421;-71
2020/12/09 05:12:59;;;;;;;27.77;17.77;;;5.30;99.90;;;;;;4161100;28;20029;-71
2020/12/09 05:15:02;;;;;;;29.85;17.55;;;5.30;99.90;;;;;;4154054;28;20022;-71
2020/12/09 05:17:05;;;;;;;27.75;17.50;;;5.30;99.90;;;;;;4155691;28;20075;-70
2020/12/09 05:19:06;;;;;;;34.63;19.17;;;5.30;99.90;;;;;;4157673;28;20041;-71
2020/12/09 05:21:27;;;;;;;30.20;18.13;;;5.30;99.90;;;;;;4154395;28;20037;-71
2020/12/09 05:23:31;;;;;;;31.42;19.40;;;5.20;99.90;;;;;;4158116;28;20056;-71
2020/12/09 05:25:33;;;;;;;30.33;18.90;;;5.30;99.90;;;;;;4160941;28;20029;-71
2020/12/09 05:27:34;;;;;;;32.35;19.70;;;5.30;99.90;;;;;;4159707;28;20056;-72
2020/12/09 05:29:44;;;;;;;33.72;19.88;;;5.20;99.90;;;;;;4161179;28;20041;-72
2020/12/09 05:31:58;;;;;;;29.17;18.77;;;5.20;99.90;;;;;;4154554;28;20117;-72
2020/12/09 05:33:59;;;;;;;32.22;20.08;;;5.10;99.90;;;;;;4161826;28;20057;-72
2020/12/09 05:36:02;;;;;;;30.95;18.52;;;5.10;99.90;;;;;;4160167;28;20620;-73
2020/12/09 05:38:11;;;;;;;;;;;5.10;99.90;;;;;;4162799;28;20042;-72
2020/12/09 05:40:12;;;;;;;31.02;18.67;;;5.00;99.90;;;;;;4158155;28;20475;-72
2020/12/09 05:42:19;;;;;;;31.23;19.48;;;5.00;99.90;;;;;;4160067;28;20087;-72
2020/12/09 05:44:24;;;;;;;34.85;20.17;;;5.00;99.90;;;;;;4154846;28;20401;-70
2020/12/09 05:46:25;;;;;;;35.35;21.45;;;5.00;99.90;;;;;;4156822;28;20033;-71
2020/12/09 05:48:26;;;;;;;35.03;21.75;;;5.00;99.90;;;;;;4157411;28;20129;-72
2020/12/09 05:50:53;;;;;;;37.67;22.33;;;4.90;99.90;;;;;;4159825;28;20393;-72
2020/12/09 05:52:54;;;;;;;37.05;22.70;;;4.90;99.90;;;;;;4154426;28;20488;-72
2020/12/09 05:54:54;;;;;;;37.00;23.52;;;4.90;99.90;;;;;;4156068;28;20037;-71
2020/12/09 05:56:56;;;;;;;39.45;23.48;;;4.90;99.90;;;;;;4159831;28;20477;-71
2020/12/09 05:58:57;;;;;;;40.28;23.52;;;4.90;99.90;;;;;;4157655;28;20030;-72
2020/12/09 06:01:30;;;;;;;43.42;24.52;;;4.90;99.90;;;;;;4158103;28;20045;-72
2020/12/09 06:03:31;;;;;;;55.78;30.92;;;4.80;99.90;;;;;;4132361;28;20053;-71
2020/12/09 06:05:41;;;;;;;61.72;31.55;;;4.80;99.90;;;;;;4142416;28;20099;-71
2020/12/09 06:07:42;;;;;;;65.75;34.75;;;4.70;99.90;;;;;;4158808;28;20113;-71
2020/12/09 06:10:06;;;;;;;61.15;33.63;;;4.50;99.90;;;;;;4158516;28;20038;-71
2020/12/09 06:12:07;;;;;;;62.60;33.25;;;4.50;99.90;;;;;;4154855;28;20076;-72
2020/12/09 06:14:16;;;;;;;60.10;30.63;;;4.40;99.90;;;;;;4156986;28;20041;-72
2020/12/09 06:16:18;;;;;;;62.42;32.28;;;4.30;99.90;;;;;;4157897;28;20053;-72
2020/12/09 06:18:18;;;;;;;53.97;30.00;;;4.30;99.90;;;;;;4158468;28;20091;-71
2020/12/09 06:20:21;;;;;;;56.20;29.63;;;4.20;99.90;;;;;;4155560;28;20049;-72
2020/12/09 06:22:24;;;;;;;56.33;29.42;;;4.20;99.90;;;;;;4158034;28;20036;-71
2020/12/09 06:24:24;;;;;;;52.95;28.02;;;4.20;99.90;;;;;;4156718;28;20113;-72
2020/12/09 06:26:25;;;;;;;52.75;28.23;;;4.10;99.90;;;;;;4158458;28;20100;-72
2020/12/09 06:28:28;;;;;;;52.15;27.67;;;4.10;99.90;;;;;;4140648;28;20018;-72
2020/12/09 06:30:30;;;;;;;58.75;29.42;;;4.20;99.90;;;;;;4158089;28;20342;-72
2020/12/09 06:32:47;;;;;;;50.20;27.35;;;4.10;99.90;;;;;;4160874;28;20115;-70
2020/12/09 06:35:06;;;;;;;55.30;29.35;;;4.10;99.90;;;;;;4161538;28;20025;-71
2020/12/09 06:37:12;;;;;;;50.08;27.00;;;4.10;99.90;;;;;;4161259;28;20507;-70
2020/12/09 06:39:17;;;;;;;49.10;27.52;;;4.10;99.90;;;;;;4161282;28;20515;-71
2020/12/09 06:41:18;;;;;;;51.00;28.88;;;4.10;99.90;;;;;;4161464;28;20493;-71
2020/12/09 06:43:18;;;;;;;49.13;26.90;;;4.10;99.90;;;;;;4162029;28;20044;-71
2020/12/09 06:45:19;;;;;;;46.47;25.80;;;4.10;99.90;;;;;;4173904;28;20060;-70
2020/12/09 06:47:20;;;;;;;47.83;26.25;;;4.10;99.90;;;;;;4159309;28;20745;-71
2020/12/09 06:49:31;;;;;;;44.88;25.75;;;4.00;99.90;;;;;;4153726;28;20072;-71
2020/12/09 06:51:37;;;;;;;48.42;27.35;;;4.00;99.90;;;;;;4152556;28;20043;-71
2020/12/09 06:53:38;;;;;;;49.47;26.85;;;4.10;99.90;;;;;;4135857;28;20113;-70
2020/12/09 06:55:39;;;;;;;50.47;28.05;;;4.00;99.90;;;;;;4155853;28;20471;-71
2020/12/09 06:57:40;;;;;;;49.83;27.02;;;4.00;99.90;;;;;;4155500;28;20416;-71
2020/12/09 06:59:43;;;;;;;48.70;26.43;;;4.00;99.90;;;;;;4157945;28;20112;-71
2020/12/09 07:02:04;;;;;;;49.05;26.67;;;4.00;99.90;;;;;;4160061;28;20039;-71
2020/12/09 07:04:07;;;;;;;45.97;26.20;;;4.00;99.90;;;;;;4155220;28;20041;-71
2020/12/09 07:06:32;;;;;;;44.47;25.33;;;4.00;99.90;;;;;;4161599;28;20037;-71
2020/12/09 07:08:44;;;;;;;55.80;29.48;;;4.00;99.90;;;;;;4156727;28;20573;-71
2020/12/09 07:10:45;;;;;;;53.17;28.33;;;3.90;99.90;;;;;;4157144;28;20132;-71
2020/12/09 07:12:48;;;;;;;49.95;28.73;;;3.90;99.90;;;;;;4141783;28;20092;-72
2020/12/09 07:14:52;;;;;;;;;;;3.90;99.90;;;;;;4138524;28;20026;-72
2020/12/09 07:16:56;;;;;;;43.65;24.88;;;3.90;99.90;;;;;;4156356;28;19916;-72
2020/12/09 07:18:59;;;;;;;46.15;26.02;;;3.90;99.90;;;;;;4156857;28;20041;-72
2020/12/09 07:21:04;;;;;;;48.58;27.45;;;3.90;99.90;;;;;;4159277;28;20061;-73
2020/12/09 07:23:05;;;;;;;53.03;28.65;;;3.80;99.90;;;;;;4155533;28;20090;-72
2020/12/09 07:25:06;;;;;;;51.03;27.77;;;3.80;99.90;;;;;;4160407;28;20025;-72
2020/12/09 07:27:10;;;;;;;50.63;28.10;;;3.70;99.90;;;;;;4158666;28;20044;-72
2020/12/09 07:29:10;;;;;;;54.42;29.10;;;3.70;99.90;;;;;;4159126;28;20048;-72
2020/12/09 07:31:11;;;;;;;45.30;26.05;;;3.70;99.90;;;;;;4155963;28;20497;-72
2020/12/09 07:33:15;;;;;;;50.10;27.02;;;3.70;99.90;;;;;;4156438;28;20041;-72
2020/12/09 07:35:17;;;;;;;49.70;26.33;;;3.70;99.90;;;;;;4160973;28;20219;-72
2020/12/09 07:37:20;;;;;;;54.08;28.27;;;3.80;99.90;;;;;;4149403;28;20093;-72
2020/12/09 07:39:28;;;;;;;47.78;26.65;;;3.70;99.90;;;;;;4158546;28;20045;-72
2020/12/09 07:41:29;;;;;;;54.83;28.52;;;3.80;99.90;;;;;;4160675;28;20033;-72
2020/12/09 07:43:30;;;;;;;53.05;29.20;;;3.80;99.90;;;;;;4134757;28;20442;-73
2020/12/09 07:45:36;;;;;;;52.10;27.15;;;3.80;99.90;;;;;;4160508;28;20041;-72
2020/12/09 07:47:42;;;;;;;50.05;25.95;;;3.80;99.90;;;;;;4140580;28;20113;-72
2020/12/09 07:49:51;;;;;;;45.50;25.20;;;3.80;99.90;;;;;;4148312;28;20095;-73
2020/12/09 07:51:53;;;;;;;46.72;26.00;;;3.80;99.90;;;;;;4155667;28;20036;-73
2020/12/09 07:53:54;;;;;;;49.67;27.25;;;3.80;99.90;;;;;;4157467;28;20037;-72
2020/12/09 07:55:58;;;;;;;48.75;25.58;;;3.80;99.90;;;;;;4158359;28;20103;-73
2020/12/09 07:58:03;;;;;;;43.75;23.50;;;3.80;99.90;;;;;;4149737;28;20029;-72
2020/12/09 08:00:16;;;;;;;47.97;26.00;;;3.80;99.90;;;;;;4154708;28;20116;-72
2020/12/09 08:02:18;;;;;;;52.05;27.25;;;3.80;99.90;;;;;;4155707;28;20069;-73
2020/12/09 08:04:25;;;;;;;51.97;27.70;;;3.90;99.90;;;;;;4160687;28;20033;-72
2020/12/09 08:06:25;;;;;;;49.00;27.25;;;3.80;99.90;;;;;;4160375;28;20041;-72
2020/12/09 08:08:27;;;;;;;48.58;26.42;;;3.80;99.90;;;;;;4160214;28;20021;-72
2020/12/09 08:10:32;;;;;;;50.25;28.38;;;3.80;99.90;;;;;;4160116;28;20083;-72
2020/12/09 08:12:36;;;;;;;49.00;25.85;;;3.80;99.90;;;;;;4155448;28;20034;-72
2020/12/09 08:14:36;;;;;;;45.05;23.75;;;3.80;99.90;;;;;;4158173;28;20045;-72
2020/12/09 08:16:38;;;;;;;54.03;27.75;;;3.80;99.90;;;;;;4160181;28;20033;-72
2020/12/09 08:18:41;;;;;;;52.58;27.85;;;3.80;99.90;;;;;;4159635;28;20033;-71
2020/12/09 08:20:50;;;;;;;49.50;26.27;;;3.80;99.90;;;;;;4159228;28;20033;-73
2020/12/09 08:23:01;;;;;;;52.97;26.52;;;3.80;99.90;;;;;;4158267;28;20333;-73
2020/12/09 08:25:09;;;;;;;50.50;25.85;;;3.90;99.90;;;;;;4157581;28;20057;-72
2020/12/09 08:27:19;;;;;;;50.75;26.80;;;3.80;99.90;;;;;;4154046;28;20505;-75
2020/12/09 08:29:20;;;;;;;54.22;27.95;;;3.90;99.90;;;;;;4158315;28;20038;-72
2020/12/09 08:31:21;;;;;;;45.33;24.67;;;3.90;99.90;;;;;;4156682;28;20406;-73
2020/12/09 08:33:29;;;;;;;46.58;26.70;;;3.80;99.90;;;;;;4160044;28;20046;-72
2020/12/09 08:35:43;;;;;;;55.55;28.10;;;3.90;99.90;;;;;;4158043;28;20037;-73
2020/12/09 08:37:44;;;;;;;53.47;27.65;;;3.80;99.90;;;;;;4157013;28;20030;-73
2020/12/09 08:39:44;;;;;;;53.80;28.27;;;3.80;99.90;;;;;;4159065;28;20051;-73
2020/12/09 08:41:46;;;;;;;51.30;27.35;;;3.80;99.90;;;;;;4150982;28;20037;-73
2020/12/09 08:43:47;;;;;;;46.95;26.80;;;3.80;99.90;;;;;;4153323;28;20048;-73
2020/12/09 08:45:48;;;;;;;53.30;27.70;;;3.80;99.90;;;;;;4156891;28;20030;-72
2020/12/09 08:47:48;;;;;;;48.58;26.63;;;3.80;99.90;;;;;;4157564;28;20034;-72
2020/12/09 08:49:49;;;;;;;56.17;29.75;;;3.80;99.90;;;;;;4151380;28;20034;-72
2020/12/09 08:51:49;;;;;;;56.08;31.42;;;3.80;99.90;;;;;;4149393;28;20030;-73
2020/12/09 08:53:51;;;;;;;51.38;27.75;;;3.80;99.90;;;;;;4155984;28;20432;-72
2020/12/09 08:55:52;;;;;;;51.03;27.17;;;3.80;99.90;;;;;;4152318;28;20038;-73
2020/12/09 08:57:52;;;;;;;54.17;29.58;;;3.80;99.90;;;;;;4157611;28;20041;-73
2020/12/09 08:59:53;;;;;;;49.97;26.40;;;3.80;99.90;;;;;;4159716;28;20064;-72
2020/12/09 09:01:53;;;;;;;56.55;30.25;;;3.80;99.90;;;;;;4136989;28;20034;-73
2020/12/09 09:03:57;;;;;;;52.50;28.80;;;3.80;99.90;;;;;;4157710;28;20525;-73
2020/12/09 09:05:58;;;;;;;54.70;28.92;;;3.80;99.90;;;;;;4157114;28;20060;-73
2020/12/09 09:07:59;;;;;;;54.67;29.60;;;3.80;99.90;;;;;;4149220;28;20042;-73
2020/12/09 09:09:59;;;;;;;58.58;30.48;;;3.80;99.90;;;;;;4158822;28;20120;-73
2020/12/09 09:12:00;;;;;;;47.85;28.05;;;3.90;99.90;;;;;;4159079;28;20029;-72
2020/12/09 09:14:00;;;;;;;52.65;27.42;;;3.90;99.90;;;;;;4158867;28;20511;-72
2020/12/09 09:16:08;;;;;;;53.90;29.13;;;3.90;99.90;;;;;;4157511;28;20034;-72
2020/12/09 09:18:10;;;;;;;53.50;29.05;;;3.90;99.90;;;;;;4154132;28;20037;-73
2020/12/09 09:20:10;;;;;;;49.08;27.00;;;3.90;99.90;;;;;;4157602;28;20044;-72
2020/12/09 09:22:12;;;;;;;47.70;26.67;;;3.90;99.90;;;;;;4158744;28;20065;-73
2020/12/09 09:24:12;;;;;;;46.70;26.40;;;4.00;99.90;;;;;;4158624;28;20608;-73
2020/12/09 09:26:13;;;;;;;47.38;27.10;;;4.00;99.90;;;;;;4159193;28;20048;-73
2020/12/09 09:28:14;;;;;;;49.90;28.08;;;4.00;99.90;;;;;;4158841;28;20063;-73
2020/12/09 09:30:14;;;;;;;55.20;30.95;;;4.00;99.90;;;;;;4156093;28;20068;-73
2020/12/09 09:32:17;;;;;;;58.47;32.65;;;4.00;99.90;;;;;;4154537;28;20581;-73
2020/12/09 09:34:17;;;;;;;64.95;35.30;;;4.00;99.90;;;;;;4158786;28;20084;-73
2020/12/09 09:36:18;;;;;;;54.95;29.95;;;3.90;99.90;;;;;;4155743;28;20243;-73
2020/12/09 09:38:18;;;;;;;53.38;29.42;;;3.90;99.90;;;;;;4155270;28;20350;-73
2020/12/09 09:40:19;;;;;;;57.88;31.33;;;3.90;99.90;;;;;;4158302;28;20045;-73
2020/12/09 09:42:20;;;;;;;55.92;31.75;;;4.00;99.90;;;;;;4157097;28;20022;-72
2020/12/09 09:44:21;;;;;;;54.50;30.77;;;4.00;99.90;;;;;;4157593;28;20071;-73
2020/12/09 09:46:22;;;;;;;58.90;33.20;;;4.00;99.90;;;;;;4157223;28;20478;-73
2020/12/09 09:48:23;;;;;;;55.83;30.98;;;4.00;99.90;;;;;;4155200;28;20040;-73
2020/12/09 09:50:24;;;;;;;63.88;36.03;;;4.00;99.90;;;;;;4152351;28;20037;-72
2020/12/09 09:52:25;;;;;;;57.30;32.90;;;4.00;99.90;;;;;;4150916;28;20052;-73
2020/12/09 09:54:25;;;;;;;55.42;31.73;;;4.00;99.90;;;;;;4157096;28;20041;-72
2020/12/09 09:56:26;;;;;;;60.58;31.60;;;4.00;99.90;;;;;;4153160;28;20444;-72
2020/12/09 09:58:26;;;;;;;52.97;30.77;;;4.00;99.90;;;;;;4159412;28;20094;-73
2020/12/09 10:00:27;;;;;;;54.42;31.40;;;4.00;99.90;;;;;;4157978;28;20026;-72
2020/12/09 10:02:28;;;;;;;52.65;29.35;;;4.00;99.90;;;;;;4151084;28;20033;-72
2020/12/09 10:04:29;;;;;;;52.78;29.88;;;4.00;99.90;;;;;;4155881;28;20032;-72
2020/12/09 10:06:29;;;;;;;57.50;31.65;;;4.10;99.90;;;;;;4155523;28;20087;-72
2020/12/09 10:08:30;;;;;;;49.58;28.45;;;4.10;99.90;;;;;;4155132;28;20137;-72
2020/12/09 10:10:30;;;;;;;52.35;29.83;;;4.20;99.90;;;;;;4155709;28;20167;-72
2020/12/09 10:12:31;;;;;;;49.95;29.60;;;4.20;99.90;;;;;;4157864;28;20034;-72
2020/12/09 10:14:32;;;;;;;50.90;29.58;;;4.20;99.90;;;;;;4137325;28;20060;-72
2020/12/09 10:16:34;;;;;;;47.17;27.92;;;4.20;99.90;;;;;;4156827;28;20041;-72
2020/12/09 10:18:35;;;;;;;48.92;28.40;;;4.20;99.90;;;;;;4149769;28;20041;-72
2020/12/09 10:20:35;;;;;;;44.13;25.98;;;4.30;99.90;;;;;;4154475;28;20026;-72
2020/12/09 10:22:36;;;;;;;47.63;27.33;;;4.40;99.90;;;;;;4157784;28;20028;-72
2020/12/09 10:24:38;;;;;;;43.83;26.67;;;4.40;99.90;;;;;;4155698;28;20033;-72
2020/12/09 10:26:39;;;;;;;44.42;26.55;;;4.40;99.90;;;;;;4136142;28;20333;-72
2020/12/09 10:28:41;;;;;;;49.00;28.55;;;4.50;99.90;;;;;;4156569;28;20385;-72
2020/12/09 10:30:46;;;;;;;54.55;30.05;;;4.50;99.90;;;;;;4156516;28;20038;-70